createdAt,value
2022-08-12T00:03:57.902Z,34.67769
2022-08-12T00:08:59.662Z,33.92859
2022-08-12T00:14:01.246Z,30.21081
2022-08-12T00:19:02.881Z,30.95734
2022-08-12T00:24:04.518Z,30.25624
2022-08-12T00:29:06.116Z,29.97383
2022-08-12T00:34:07.713Z,31.30964
2022-08-12T00:39:09.368Z,29.02051
2022-08-12T00:44:10.998Z,31.33537
2022-08-12T00:49:12.905Z,30.14156
2022-08-12T00:54:14.525Z,29.62312
2022-08-12T00:59:16.185Z,31.79346
2022-08-12T01:04:17.854Z,32.05364
2022-08-12T01:09:19.465Z,31.83698
2022-08-12T01:14:21.086Z,32.1248
2022-08-12T01:19:23.377Z,30.45637
2022-08-12T01:24:30.877Z,31.03549
2022-08-12T01:29:33.606Z,30.82455
2022-08-12T01:34:36.303Z,30.16824
2022-08-12T01:39:38.928Z,28.88264
2022-08-12T01:45:40.666Z,28.75272
2022-08-12T01:50:45.386Z,28.89598
2022-08-12T01:55:47.799Z,30.14918
2022-08-12T02:00:55.214Z,30.51991
2022-08-12T02:05:57.817Z,29.72573
2022-08-12T02:10:59.473Z,28.50843
2022-08-12T02:16:01.141Z,29.74638
2022-08-12T02:21:02.830Z,29.42268
2022-08-12T02:26:04.413Z,30.08629
2022-08-12T02:31:06.017Z,28.7146
2022-08-12T02:36:07.635Z,28.61612
2022-08-12T02:41:09.318Z,27.76447
2022-08-12T02:46:14.471Z,25.65998
2022-08-12T02:51:16.740Z,21.98671
2022-08-12T02:56:18.342Z,23.50536
2022-08-12T03:01:20.072Z,25.87472
2022-08-12T03:06:21.728Z,24.96432
2022-08-12T03:11:23.401Z,26.01925
2022-08-12T03:16:25.026Z,25.14983
2022-08-12T03:21:56.468Z,24.69083
2022-08-12T03:27:11.228Z,24.57329
2022-08-12T03:32:35.485Z,25.12029
2022-08-12T03:37:38.056Z,23.30747
2022-08-12T03:42:39.854Z,23.4196
2022-08-12T03:47:41.666Z,20.67835
2022-08-12T03:52:43.305Z,21.90285
2022-08-12T03:57:46.064Z,21.64683
2022-08-12T04:02:50.468Z,19.8417
2022-08-12T04:07:58.467Z,22.02832
2022-08-12T04:13:00.299Z,21.64651
2022-08-12T04:18:07.044Z,21.48357
2022-08-12T04:23:09.533Z,20.41281
2022-08-12T04:28:13.402Z,21.47467
2022-08-12T04:33:15.584Z,21.23835
2022-08-12T04:38:17.215Z,21.92096
2022-08-12T04:44:01.504Z,22.4889
2022-08-12T04:49:04.662Z,22.6636
2022-08-12T04:54:06.713Z,21.79485
2022-08-12T04:59:08.322Z,20.44997
2022-08-12T05:04:09.887Z,21.37652
2022-08-12T05:09:13.587Z,21.48388
2022-08-12T05:14:16.056Z,20.55289
2022-08-12T05:19:18.695Z,20.99631
2022-08-12T05:24:24.259Z,21.6751
2022-08-12T05:30:06.825Z,21.16783
2022-08-12T05:35:10.682Z,19.57743
2022-08-12T05:40:12.248Z,21.43338
2022-08-12T05:45:13.884Z,21.35302
2022-08-12T05:50:15.638Z,18.33391
2022-08-12T05:55:17.319Z,19.96399
2022-08-12T06:00:18.971Z,18.36631
2022-08-12T06:05:20.871Z,18.75604
2022-08-12T06:10:31.749Z,20.16093
2022-08-12T06:15:34.692Z,20.89816
2022-08-12T06:20:36.323Z,20.59259
2022-08-12T06:25:38.414Z,19.6651
2022-08-12T06:30:40.245Z,18.60072
2022-08-12T06:35:49.316Z,18.89993
2022-08-12T06:40:51.662Z,16.60794
2022-08-12T06:45:53.299Z,19.61301
2022-08-12T06:50:54.920Z,18.8599
2022-08-12T06:55:57.909Z,18.43523
2022-08-12T07:01:00.408Z,19.7858
2022-08-12T07:06:02.136Z,19.10003
2022-08-12T07:11:03.754Z,19.19818
2022-08-12T07:16:05.365Z,20.01418
2022-08-12T07:21:06.970Z,20.00592
2022-08-12T07:26:08.542Z,19.76706
2022-08-12T07:31:10.184Z,19.83122
2022-08-12T07:36:11.992Z,19.85886
2022-08-12T07:41:15.632Z,19.75563
2022-08-12T07:46:17.738Z,19.57203
2022-08-12T07:51:25.602Z,19.83853
2022-08-12T07:56:27.556Z,19.44657
2022-08-12T08:01:29.206Z,18.12015
2022-08-12T08:06:30.872Z,20.0253
2022-08-12T08:11:32.446Z,20.08946
2022-08-12T08:16:34.171Z,19.51137
2022-08-12T08:21:35.779Z,19.79946
2022-08-12T08:26:37.617Z,20.13996
2022-08-12T08:31:40.613Z,19.71084
2022-08-12T08:36:44.715Z,19.18643
2022-08-12T08:42:16.798Z,20.03387
2022-08-12T08:47:21.764Z,19.53773
2022-08-12T08:52:39.335Z,18.65757
2022-08-12T08:57:44.557Z,17.56621
2022-08-12T09:02:49.424Z,19.03333
2022-08-12T09:08:12.177Z,17.72057
2022-08-12T09:34:29.456Z,17.78188
2022-08-12T09:40:05.289Z,18.67346
2022-08-12T09:45:17.830Z,18.42602
2022-08-12T09:50:20.909Z,17.85842
2022-08-12T09:56:06.504Z,18.66456
2022-08-12T10:02:45.194Z,18.62899
2022-08-12T10:07:51.789Z,17.78537
2022-08-12T10:13:06.804Z,18.73381
2022-08-12T10:18:14.752Z,19.04953
2022-08-12T10:23:16.917Z,18.76207
2022-08-12T10:28:24.945Z,18.39426
2022-08-12T10:33:31.019Z,17.57034
2022-08-12T10:38:41.391Z,18.3409
2022-08-12T10:43:54.960Z,18.28976
2022-08-12T10:49:06.768Z,17.84762
2022-08-12T10:55:06.812Z,17.72788
2022-08-12T11:00:35.146Z,18.10776
2022-08-12T11:07:03.453Z,18.49622
2022-08-12T11:13:45.903Z,18.37266
2022-08-12T11:18:48.631Z,18.11634
2022-08-12T11:23:57.436Z,18.30342
2022-08-12T11:29:05.464Z,17.10025
2022-08-12T11:34:51.968Z,18.04932
2022-08-12T11:45:10.449Z,17.90353
2022-08-12T11:50:19.236Z,17.65324
2022-08-12T11:55:23.180Z,16.86934
2022-08-12T12:05:56.670Z,16.91603
2022-08-12T12:11:02.375Z,17.24287
2022-08-12T12:16:11.106Z,16.66765
2022-08-12T12:21:12.728Z,16.53774
2022-08-12T12:26:35.244Z,16.88808
2022-08-12T12:32:11.831Z,17.71867
2022-08-12T12:37:16.462Z,17.17299
2022-08-12T12:43:05.079Z,17.27622
2022-08-12T12:48:07.972Z,17.4471
2022-08-12T12:53:09.753Z,17.77139
2022-08-12T12:59:07.404Z,17.6507
2022-08-12T13:04:57.389Z,18.07473
2022-08-12T13:10:02.067Z,17.98706
2022-08-12T13:15:04.168Z,18.03058
2022-08-12T13:20:05.802Z,17.48617
2022-08-12T13:25:09.631Z,17.52619
2022-08-12T13:30:13.271Z,17.98452
2022-08-12T13:35:19.804Z,17.72661
2022-08-12T13:40:34.712Z,18.34503
2022-08-12T13:45:36.871Z,18.20432
2022-08-12T13:50:38.619Z,18.57118
2022-08-12T13:55:41.168Z,18.25832
2022-08-12T14:00:45.703Z,19.32841
2022-08-12T14:05:47.676Z,18.41713
2022-08-12T14:10:52.152Z,19.78612
2022-08-12T14:15:53.753Z,18.71348
2022-08-12T14:20:55.570Z,20.26575
2022-08-12T14:25:57.263Z,20.28449
2022-08-12T14:31:01.041Z,20.2127
2022-08-12T14:36:03.258Z,20.66342
2022-08-12T14:41:05.076Z,20.98297
2022-08-12T14:46:09.276Z,21.34285
2022-08-12T14:52:43.247Z,21.3419
2022-08-12T14:58:59.997Z,20.81653
2022-08-12T15:04:22.541Z,20.80223
2022-08-12T15:09:29.179Z,21.15322
2022-08-12T15:14:31.113Z,21.23898
2022-08-12T15:20:31.790Z,21.18244
2022-08-12T15:25:40.166Z,22.1576
2022-08-12T15:30:49.121Z,22.83037
2022-08-12T15:35:53.966Z,23.78775
2022-08-12T15:40:55.941Z,23.57588
2022-08-12T15:46:00.899Z,23.36623
2022-08-12T15:51:02.839Z,23.37513
2022-08-12T15:56:04.741Z,23.44501
2022-08-12T16:01:06.861Z,23.9129
2022-08-12T16:06:19.016Z,24.3719
2022-08-12T16:11:32.722Z,23.98723
2022-08-12T16:16:48.525Z,24.56948
2022-08-12T16:21:58.290Z,24.86236
2022-08-12T16:27:00.704Z,25.35059
2022-08-12T16:32:02.415Z,24.96305
2022-08-12T16:37:04.056Z,25.64632
2022-08-12T16:42:09.043Z,25.80356
2022-08-12T16:47:11.299Z,26.10089
2022-08-12T16:52:16.602Z,26.2613
2022-08-12T16:57:34.659Z,25.9319
2022-08-12T17:02:37.849Z,24.64318
2022-08-12T17:07:43.132Z,25.16444
2022-08-12T17:12:45.004Z,25.98971
2022-08-12T17:17:46.939Z,26.55387
2022-08-12T17:22:49.417Z,26.84833
2022-08-12T17:27:57.509Z,26.65425
2022-08-12T17:33:00.627Z,27.22953
2022-08-12T17:38:04.056Z,26.15965
2022-08-12T17:43:52.141Z,26.11645
2022-08-12T17:49:00.482Z,26.57547
2022-08-12T17:54:12.446Z,26.93093
2022-08-12T17:59:14.472Z,27.43346
2022-08-12T18:05:04.823Z,27.30545
2022-08-12T18:10:11.543Z,26.69046
2022-08-12T18:15:26.751Z,28.0078
2022-08-12T18:21:06.290Z,28.58975
2022-08-12T18:26:15.053Z,28.23747
2022-08-12T18:31:18.815Z,28.20157
2022-08-12T18:36:22.389Z,28.93315
2022-08-12T18:41:24.750Z,28.43473
2022-08-12T18:46:29.858Z,29.28258
2022-08-12T18:51:34.239Z,29.59517
2022-08-12T18:56:47.689Z,30.20478
2022-08-12T19:02:20.892Z,29.77465
2022-08-12T19:07:23.935Z,27.75367
2022-08-12T19:12:30.291Z,29.92936
2022-08-12T19:17:56.168Z,29.79308
2022-08-12T19:23:02.103Z,30.37441
2022-08-12T19:28:08.715Z,28.64566
2022-08-12T19:33:10.309Z,28.55259
2022-08-12T19:38:12.279Z,30.33566
2022-08-12T19:43:20.713Z,31.282
2022-08-12T19:48:22.589Z,31.37254
2022-08-12T19:53:24.485Z,31.90211
2022-08-12T19:58:27.010Z,29.42966
2022-08-12T20:03:39.492Z,30.91032
2022-08-12T20:08:47.745Z,31.16288
2022-08-12T20:14:00.634Z,31.70451
2022-08-12T20:19:03.366Z,32.84593
2022-08-12T20:24:10.664Z,29.60946
2022-08-12T20:29:12.349Z,29.18125
2022-08-12T20:34:13.985Z,30.63935
2022-08-12T20:39:52.145Z,31.9272
2022-08-12T20:44:55.689Z,30.33947
2022-08-12T20:50:00.130Z,30.27625
2022-08-12T20:55:01.869Z,32.78493
2022-08-12T21:00:03.474Z,34.82764
2022-08-12T21:05:16.324Z,35.34229
2022-08-12T21:10:21.438Z,36.1613
2022-08-12T21:15:30.761Z,36.61941
2022-08-12T21:20:56.930Z,32.2058
2022-08-12T21:26:01.417Z,37.01335
2022-08-12T21:32:35.440Z,35.13293
2022-08-12T21:37:40.194Z,33.47366
2022-08-12T21:42:42.261Z,35.80357
2022-08-12T21:47:43.995Z,32.34812
2022-08-12T21:52:49.187Z,32.74459
2022-08-12T21:57:54.660Z,33.93971
2022-08-12T22:03:04.225Z,35.12721
2022-08-12T22:08:05.927Z,32.59337
2022-08-12T22:14:02.354Z,34.41877
2022-08-12T22:19:09.853Z,34.02294
2022-08-12T22:24:25.757Z,35.68635
2022-08-12T22:29:28.855Z,36.06599
2022-08-12T22:34:33.168Z,33.09721
2022-08-12T22:39:35.212Z,31.34427
2022-08-12T22:44:52.904Z,33.72114
2022-08-12T22:49:59.889Z,30.29468
2022-08-12T22:55:05.362Z,29.04306
2022-08-12T23:00:23.623Z,32.55334
2022-08-12T23:05:57.799Z,31.55616
2022-08-12T23:11:12.121Z,32.67851
2022-08-12T23:16:28.202Z,30.26227
2022-08-12T23:22:03.413Z,32.57844
2022-08-12T23:27:08.462Z,31.88876
2022-08-12T23:32:10.301Z,33.40854
2022-08-12T23:37:11.909Z,34.22054
2022-08-12T23:42:16.897Z,34.96265
2022-08-12T23:47:19.944Z,35.13484
2022-08-12T23:52:21.560Z,30.82392
2022-08-12T23:57:24.757Z,34.84479
